Time;durP1;ratioP1;P1;durP2;ratioP2;P2;SDS_P1;SDS_P2;PMS_P1;PMS_P2;Temp;Humidity;BMP_temperature;BMP_pressure;BME280_temperature;BME280_humidity;BME280_pressure;Samples;Min_cycle;Max_cycle;Signal;HPM_P1;HPM_P2
2023/05/29 00:02:18;;;;;;;10.30;6.13;;;;;;;;;;10390673;28;20025;-78
2023/05/29 00:07:18;;;;;;;10.97;6.17;;;;;;;;;;10388702;28;20052;-81
2023/05/29 00:12:22;;;;;;;8.40;5.70;;;;;;;;;;10406510;28;20037;-76
2023/05/29 00:17:23;;;;;;;8.40;5.63;;;;;;;;;;10387353;28;20474;-78
2023/05/29 00:22:23;;;;;;;10.95;6.70;;;;;;;;;;10386822;28;20033;-83
2023/05/29 00:27:24;;;;;;;13.77;6.45;;;;;;;;;;10386637;28;20116;-81
2023/05/29 00:32:25;;;;;;;11.50;6.25;;;;;;;;;;10405260;28;20061;-79
2023/05/29 00:37:25;;;;;;;11.65;5.90;;;;;;;;;;10400915;28;20033;-75
2023/05/29 00:42:25;;;;;;;16.37;7.43;;;;;;;;;;10401188;28;20452;-81
2023/05/29 00:47:26;;;;;;;9.03;5.87;;;;;;;;;;10385024;28;20153;-78
2023/05/29 00:52:26;;;;;;;13.57;6.17;;;;;;;;;;10385286;28;20039;-80
2023/05/29 00:57:27;;;;;;;11.73;6.32;;;;;;;;;;10401660;28;20054;-75
2023/05/29 01:02:29;;;;;;;13.35;6.72;;;;;;;;;;10415392;28;20035;-81
2023/05/29 01:07:30;;;;;;;10.23;6.32;;;;;;;;;;10423375;28;20033;-77
2023/05/29 01:12:34;;;;;;;10.35;6.28;;;;;;;;;;10443361;28;20047;-83
2023/05/29 01:17:53;;;;;;;13.18;6.72;;;;;;;;;;10442963;28;20559;-78
2023/05/29 01:22:58;;;;;;;15.88;6.88;;;;;;;;;;10452486;28;20117;-76
2023/05/29 01:28:01;;;;;;;12.93;6.57;;;;;;;;;;10445576;28;20479;-83
2023/05/29 01:33:02;;;;;;;13.85;7.15;;;;;;;;;;10430526;28;20045;-77
2023/05/29 01:38:02;;;;;;;16.50;8.57;;;;;;;;;;10417943;28;20025;-77
2023/05/29 01:43:03;;;;;;;10.35;6.45;;;;;;;;;;10383200;28;20411;-79
2023/05/29 01:48:03;;;;;;;9.65;6.80;;;;;;;;;;10385010;28;20124;-77
2023/05/29 01:53:04;;;;;;;16.23;7.03;;;;;;;;;;10398380;28;20033;-77
2023/05/29 01:58:05;;;;;;;11.97;6.73;;;;;;;;;;10382928;28;20021;-82
2023/05/29 02:03:05;;;;;;;11.57;7.22;;;;;;;;;;10357573;28;20273;-77
2023/05/29 02:08:07;;;;;;;17.35;10.27;;;;;;;;;;10366032;28;20541;-77
2023/05/29 02:13:13;;;;;;;13.30;7.60;;;;;;;;;;10415981;28;20128;-82
2023/05/29 02:18:17;;;;;;;14.30;7.45;;;;;;;;;;10379820;28;20038;-77
2023/05/29 02:23:19;;;;;;;13.50;8.15;;;;;;;;;;10374059;28;20029;-81
2023/05/29 02:28:19;;;;;;;13.95;8.68;;;;;;;;;;10381099;28;20486;-77
2023/05/29 02:33:19;;;;;;;12.93;8.30;;;;;;;;;;10425614;28;20144;-76
2023/05/29 02:38:21;;;;;;;16.15;8.95;;;;;;;;;;10383294;28;20055;-80
2023/05/29 02:43:23;;;;;;;11.65;8.25;;;;;;;;;;10401766;28;20167;-78
2023/05/29 02:48:23;;;;;;;17.15;9.85;;;;;;;;;;10408915;28;20564;-77
2023/05/29 02:53:24;;;;;;;14.70;7.90;;;;;;;;;;10440037;28;20033;-80
2023/05/29 02:58:24;;;;;;;15.15;8.90;;;;;;;;;;10422195;28;20060;-77
2023/05/29 03:03:26;;;;;;;15.02;9.15;;;;;;;;;;10416729;28;20025;-78
2023/05/29 03:08:28;;;;;;;13.38;8.52;;;;;;;;;;10395141;28;20387;-76
2023/05/29 03:13:34;;;;;;;20.35;10.20;;;;;;;;;;10442127;28;20098;-78
2023/05/29 03:18:35;;;;;;;16.75;9.27;;;;;;;;;;10427913;28;20463;-77
2023/05/29 03:23:36;;;;;;;18.13;9.43;;;;;;;;;;10434748;28;20057;-82
2023/05/29 03:28:36;;;;;;;21.80;9.25;;;;;;;;;;10463129;28;20229;-77
2023/05/29 03:33:36;;;;;;;17.77;8.68;;;;;;;;;;10391510;28;20049;-81
2023/05/29 03:38:37;;;;;;;18.48;9.65;;;;;;;;;;10484600;28;20048;-80
2023/05/29 03:43:37;;;;;;;28.08;8.70;;;;;;;;;;10409845;28;20014;-83
2023/05/29 03:48:37;;;;;;;17.95;8.00;;;;;;;;;;10442553;28;20025;-75
2023/05/29 03:53:39;;;;;;;19.00;8.37;;;;;;;;;;10438704;28;20032;-78
2023/05/29 03:58:39;;;;;;;13.57;8.70;;;;;;;;;;10402943;28;20026;-79
2023/05/29 04:03:39;;;;;;;23.35;8.85;;;;;;;;;;10426825;28;20449;-75
2023/05/29 04:08:40;;;;;;;20.35;8.30;;;;;;;;;;10430067;28;20711;-76
2023/05/29 04:13:40;;;;;;;22.17;9.53;;;;;;;;;;10431035;28;20036;-79
2023/05/29 04:18:41;;;;;;;19.63;8.60;;;;;;;;;;10408962;28;20045;-79
2023/05/29 04:23:44;;;;;;;18.60;7.63;;;;;;;;;;10401792;28;20308;-79
2023/05/29 04:28:57;;;;;;;18.13;6.53;;;;;;;;;;10411443;28;20175;-83
2023/05/29 04:34:00;;;;;;;11.27;5.43;;;;;;;;;;10404203;28;20056;-81
2023/05/29 04:39:00;;;;;;;12.40;5.78;;;;;;;;;;10399960;28;20029;-80
2023/05/29 04:44:08;;;;;;;12.10;5.57;;;;;;;;;;10376560;28;20522;-83
2023/05/29 04:49:08;;;;;;;20.83;6.65;;;;;;;;;;10342171;28;20038;-81
2023/05/29 04:54:10;;;;;;;19.98;6.28;;;;;;;;;;10365708;28;20033;-83
2023/05/29 04:59:13;;;;;;;11.43;5.97;;;;;;;;;;10358537;28;20029;-83
2023/05/29 05:04:16;;;;;;;16.50;6.40;;;;;;;;;;10356230;28;20041;-79
2023/05/29 05:09:17;;;;;;;13.25;5.40;;;;;;;;;;10338906;28;20030;-79
2023/05/29 05:14:17;;;;;;;9.55;4.70;;;;;;;;;;10378171;28;20171;-79
2023/05/29 05:19:19;;;;;;;15.65;4.85;;;;;;;;;;10372454;28;20117;-81
2023/05/29 05:24:20;;;;;;;13.25;6.10;;;;;;;;;;10351561;28;20496;-81
2023/05/29 05:29:21;;;;;;;10.20;5.03;;;;;;;;;;10357733;28;20034;-79
2023/05/29 05:34:25;;;;;;;13.73;6.20;;;;;;;;;;10393766;28;20048;-82
2023/05/29 05:39:26;;;;;;;9.20;4.75;;;;;;;;;;10411804;28;20044;-78
2023/05/29 05:44:26;;;;;;;9.77;4.77;;;;;;;;;;10424121;28;20036;-81
2023/05/29 05:49:26;;;;;;;22.58;6.78;;;;;;;;;;10444899;28;20275;-79
2023/05/29 05:54:27;;;;;;;13.98;5.65;;;;;;;;;;10436324;28;20465;-82
2023/05/29 05:59:27;;;;;;;7.83;4.27;;;;;;;;;;10401768;28;20133;-79
2023/05/29 06:04:27;;;;;;;6.18;3.88;;;;;;;;;;10420118;28;20497;-76
2023/05/29 06:09:27;;;;;;;8.15;3.65;;;;;;;;;;10432406;28;20123;-80
2023/05/29 06:14:29;;;;;;;6.67;3.13;;;;;;;;;;10400082;28;20030;-84
2023/05/29 06:19:31;;;;;;;13.70;4.43;;;;;;;;;;10424550;28;20045;-80
2023/05/29 06:24:37;;;;;;;6.25;4.05;;;;;;;;;;10442841;28;20036;-76
2023/05/29 06:29:37;;;;;;;6.07;2.53;;;;;;;;;;10421652;28;20116;-79
2023/05/29 06:34:38;;;;;;;4.35;2.25;;;;;;;;;;10437813;28;20526;-80
2023/05/29 06:39:41;;;;;;;3.67;2.00;;;;;;;;;;10451463;28;20055;-76
2023/05/29 06:50:31;;;;;;;1.98;1.48;;;;;;;;;;10461120;28;20056;-76
2023/05/29 06:55:31;;;;;;;6.72;1.67;;;;;;;;;;10440986;28;20037;-77
2023/05/29 07:00:32;;;;;;;9.20;2.15;;;;;;;;;;10444868;28;20458;-78
2023/05/29 07:05:39;;;;;;;2.92;1.38;;;;;;;;;;10448194;28;20446;-79
2023/05/29 07:10:41;;;;;;;5.00;1.42;;;;;;;;;;10448573;28;20051;-81
2023/05/29 07:15:43;;;;;;;5.30;1.80;;;;;;;;;;10430222;28;20041;-79
2023/05/29 07:20:43;;;;;;;2.17;1.17;;;;;;;;;;10426817;28;20039;-80
2023/05/29 07:25:43;;;;;;;3.60;1.52;;;;;;;;;;10405576;28;20060;-78
2023/05/29 07:30:43;;;;;;;10.83;2.97;;;;;;;;;;10416218;28;20040;-77
2023/05/29 07:35:44;;;;;;;3.88;1.83;;;;;;;;;;10375218;28;20037;-75
2023/05/29 07:40:44;;;;;;;3.15;1.55;;;;;;;;;;10359152;28;20041;-77
2023/05/29 07:45:44;;;;;;;6.00;2.20;;;;;;;;;;10401999;28;20402;-74
2023/05/29 07:50:45;;;;;;;4.15;2.30;;;;;;;;;;10403778;28;20034;-79
2023/05/29 07:55:45;;;;;;;4.47;1.83;;;;;;;;;;10405605;28;20030;-77
2023/05/29 08:00:45;;;;;;;4.50;1.83;;;;;;;;;;10400645;28;20033;-75
2023/05/29 08:05:46;;;;;;;4.82;1.92;;;;;;;;;;10383777;28;20133;-80
2023/05/29 08:10:47;;;;;;;5.88;2.40;;;;;;;;;;10357876;28;20190;-80
2023/05/29 08:15:47;;;;;;;5.13;3.05;;;;;;;;;;10383917;28;20497;-80
2023/05/29 08:20:48;;;;;;;4.60;2.00;;;;;;;;;;10370359;28;20030;-75
2023/05/29 08:25:50;;;;;;;2.33;1.83;;;;;;;;;;10348169;28;20128;-78
2023/05/29 08:30:50;;;;;;;9.82;2.63;;;;;;;;;;10377706;28;20591;-75
2023/05/29 08:35:51;;;;;;;3.60;1.92;;;;;;;;;;10402665;28;20042;-81
2023/05/29 08:40:51;;;;;;;8.32;1.98;;;;;;;;;;10383190;28;20534;-81
2023/05/29 08:45:59;;;;;;;8.10;3.72;;;;;;;;;;10401503;28;20048;-77
2023/05/29 08:51:01;;;;;;;4.32;2.25;;;;;;;;;;10360231;28;20147;-74
2023/05/29 08:56:01;;;;;;;3.67;1.83;;;;;;;;;;10344982;28;20033;-79
2023/05/29 09:01:01;;;;;;;4.35;2.20;;;;;;;;;;10385158;28;20033;-78
2023/05/29 09:06:03;;;;;;;5.53;2.03;;;;;;;;;;10369795;28;20092;-76
2023/05/29 09:11:03;;;;;;;4.55;1.70;;;;;;;;;;10368467;28;20042;-78
2023/05/29 09:16:03;;;;;;;2.97;2.40;;;;;;;;;;10383509;28;20499;-80
2023/05/29 09:21:09;;;;;;;3.53;1.60;;;;;;;;;;10358842;28;20034;-76
2023/05/29 09:26:13;;;;;;;6.18;2.03;;;;;;;;;;10370580;28;20037;-78
2023/05/29 09:31:16;;;;;;;1.92;1.40;;;;;;;;;;10398906;28;20137;-76
2023/05/29 09:36:23;;;;;;;4.95;2.00;;;;;;;;;;10357493;28;20128;-80
2023/05/29 09:41:24;;;;;;;11.05;2.45;;;;;;;;;;10377606;28;20998;-78
2023/05/29 09:46:24;;;;;;;4.32;1.77;;;;;;;;;;10385145;28;20098;-77
2023/05/29 09:51:25;;;;;;;3.35;2.10;;;;;;;;;;10385574;28;20042;-75
2023/05/29 09:56:26;;;;;;;5.75;3.25;;;;;;;;;;10365765;28;20499;-74
2023/05/29 10:01:27;;;;;;;5.78;3.03;;;;;;;;;;10409066;28;20029;-78
2023/05/29 10:06:30;;;;;;;4.43;2.70;;;;;;;;;;10400338;28;20041;-78
2023/05/29 10:11:31;;;;;;;2.92;2.05;;;;;;;;;;10374934;28;20427;-75
2023/05/29 10:16:35;;;;;;;4.82;2.00;;;;;;;;;;10380532;28;20033;-74
2023/05/29 10:21:36;;;;;;;7.07;2.45;;;;;;;;;;10382186;28;20040;-78
2023/05/29 10:26:38;;;;;;;4.15;1.90;;;;;;;;;;10395763;28;20029;-80
2023/05/29 10:31:58;;;;;;;2.83;1.95;;;;;;;;;;10383747;28;20068;-78
2023/05/29 10:37:06;;;;;;;6.13;2.15;;;;;;;;;;10356137;28;20046;-74
2023/05/29 10:42:25;;;;;;;3.78;2.00;;;;;;;;;;10378995;28;20563;-74
2023/05/29 10:47:25;;;;;;;9.52;2.65;;;;;;;;;;10396556;28;20400;-76
2023/05/29 10:52:25;;;;;;;6.53;2.95;;;;;;;;;;10379250;28;20033;-77
2023/05/29 10:57:28;;;;;;;8.52;3.35;;;;;;;;;;10397647;28;20412;-79
2023/05/29 11:02:30;;;;;;;8.23;3.45;;;;;;;;;;10400314;28;20068;-78
2023/05/29 11:07:51;;;;;;;9.00;3.83;;;;;;;;;;10396409;28;20034;-75
2023/05/29 11:12:58;;;;;;;7.03;3.75;;;;;;;;;;10378086;28;20530;-74
2023/05/29 11:18:05;;;;;;;7.55;2.80;;;;;;;;;;10378909;28;20034;-73
2023/05/29 11:23:09;;;;;;;;;;;;;;;;;;10355394;28;20498;-81
2023/05/29 11:28:10;;;;;;;8.18;2.92;;;;;;;;;;10357645;28;20416;-77
2023/05/29 11:33:16;;;;;;;5.70;3.17;;;;;;;;;;10380225;28;20055;-78
2023/05/29 11:38:16;;;;;;;7.20;3.42;;;;;;;;;;10404961;28;20521;-77
2023/05/29 11:43:16;;;;;;;8.30;2.45;;;;;;;;;;10371062;28;20124;-82
2023/05/29 11:48:17;;;;;;;11.10;3.40;;;;;;;;;;10378774;28;20033;-76
2023/05/29 11:53:17;;;;;;;6.33;2.40;;;;;;;;;;10385170;28;20068;-78
2023/05/29 11:58:17;;;;;;;13.63;3.73;;;;;;;;;;10356709;28;20462;-81
2023/05/29 12:03:19;;;;;;;8.03;3.83;;;;;;;;;;10381479;28;20079;-78
2023/05/29 12:08:25;;;;;;;7.28;3.92;;;;;;;;;;10358944;28;20037;-75
2023/05/29 12:13:25;;;;;;;6.82;4.18;;;;;;;;;;10343813;28;20065;-77
2023/05/29 12:18:27;;;;;;;15.45;4.53;;;;;;;;;;10343764;28;20038;-75
2023/05/29 12:23:31;;;;;;;10.25;5.10;;;;;;;;;;10345074;28;20044;-79
2023/05/29 12:28:31;;;;;;;9.98;4.05;;;;;;;;;;10384226;28;20124;-78
2023/05/29 12:33:32;;;;;;;9.10;4.15;;;;;;;;;;10422231;28;20045;-76
2023/05/29 12:38:33;;;;;;;9.98;5.05;;;;;;;;;;10439813;28;20044;-77
2023/05/29 12:43:33;;;;;;;10.02;5.85;;;;;;;;;;10424473;28;20043;-80
2023/05/29 12:48:34;;;;;;;10.05;4.95;;;;;;;;;;10412858;28;20033;-79
2023/05/29 12:53:34;;;;;;;23.05;5.85;;;;;;;;;;10439447;28;20125;-76
2023/05/29 12:58:35;;;;;;;7.63;3.67;;;;;;;;;;10417161;28;20098;-76
2023/05/29 13:03:35;;;;;;;4.67;3.70;;;;;;;;;;10413786;28;20584;-75
2023/05/29 13:08:36;;;;;;;9.20;4.35;;;;;;;;;;10422375;28;20033;-77
2023/05/29 13:13:36;;;;;;;11.87;6.27;;;;;;;;;;10419713;28;20073;-75
2023/05/29 13:18:36;;;;;;;11.60;6.45;;;;;;;;;;10440427;28;20102;-76
2023/05/29 13:23:37;;;;;;;10.27;6.22;;;;;;;;;;10422635;28;20877;-77
2023/05/29 13:28:37;;;;;;;10.25;7.00;;;;;;;;;;10422425;28;20083;-76
2023/05/29 13:33:37;;;;;;;17.87;8.23;;;;;;;;;;10422037;28;20056;-76
2023/05/29 13:38:37;;;;;;;13.65;5.50;;;;;;;;;;10427975;28;20388;-76
2023/05/29 13:43:38;;;;;;;12.23;6.20;;;;;;;;;;10421758;28;20483;-76
2023/05/29 13:48:38;;;;;;;12.93;6.47;;;;;;;;;;10404644;28;20307;-77
2023/05/29 13:53:38;;;;;;;15.57;6.07;;;;;;;;;;10406842;28;20429;-78
2023/05/29 13:58:38;;;;;;;12.38;7.03;;;;;;;;;;10421417;28;20525;-75
2023/05/29 14:03:39;;;;;;;7.53;5.28;;;;;;;;;;10422390;28;20621;-77
2023/05/29 14:08:39;;;;;;;8.00;4.97;;;;;;;;;;10420615;28;20187;-77
2023/05/29 14:13:40;;;;;;;11.13;5.35;;;;;;;;;;10419913;28;20435;-77
2023/05/29 14:18:41;;;;;;;12.18;5.05;;;;;;;;;;10422273;28;20048;-74
2023/05/29 14:23:41;;;;;;;8.88;5.57;;;;;;;;;;10419069;28;20037;-77
2023/05/29 14:28:42;;;;;;;7.22;2.70;;;;;;;;;;10419423;28;20473;-77
2023/05/29 14:33:42;;;;;;;6.60;2.20;;;;;;;;;;10419192;28;20430;-75
2023/05/29 14:38:44;;;;;;;2.45;1.70;;;;;;;;;;10420097;28;20075;-75
2023/05/29 14:43:44;;;;;;;3.60;2.00;;;;;;;;;;10437118;28;20059;-78
2023/05/29 14:48:47;;;;;;;4.65;2.45;;;;;;;;;;10421892;28;20117;-75
2023/05/29 14:53:47;;;;;;;7.22;2.33;;;;;;;;;;10415561;28;20029;-74
2023/05/29 14:58:48;;;;;;;13.85;2.33;;;;;;;;;;10415344;28;20033;-84
2023/05/29 15:03:48;;;;;;;9.07;3.25;;;;;;;;;;10421123;28;20079;-80
2023/05/29 15:08:50;;;;;;;6.07;2.47;;;;;;;;;;10425377;28;20218;-75
2023/05/29 15:13:50;;;;;;;4.60;2.53;;;;;;;;;;10431460;28;20032;-75
2023/05/29 15:18:51;;;;;;;7.27;2.63;;;;;;;;;;10425430;28;20033;-77
2023/05/29 15:23:52;;;;;;;9.68;2.92;;;;;;;;;;10442189;28;20495;-76
2023/05/29 15:28:54;;;;;;;6.32;2.75;;;;;;;;;;10447101;28;20025;-79
2023/05/29 15:34:20;;;;;;;6.20;3.25;;;;;;;;;;10432884;28;20044;-80
2023/05/29 15:39:20;;;;;;;4.60;3.10;;;;;;;;;;10445108;28;20029;-77
2023/05/29 15:44:20;;;;;;;4.35;2.97;;;;;;;;;;10443490;28;20036;-76
2023/05/29 15:49:22;;;;;;;5.77;3.10;;;;;;;;;;10428404;28;20037;-82
2023/05/29 15:54:22;;;;;;;14.00;3.67;;;;;;;;;;10439295;28;20415;-74
2023/05/29 15:59:23;;;;;;;7.07;3.20;;;;;;;;;;10412546;28;20022;-74
2023/05/29 16:04:23;;;;;;;6.68;3.38;;;;;;;;;;10416801;28;20039;-77
2023/05/29 16:09:23;;;;;;;9.30;3.75;;;;;;;;;;10408210;28;20036;-78
2023/05/29 16:14:24;;;;;;;5.90;3.22;;;;;;;;;;10404492;28;20035;-77
2023/05/29 16:19:24;;;;;;;9.77;4.43;;;;;;;;;;10409213;28;20037;-77
2023/05/29 16:24:25;;;;;;;10.55;5.03;;;;;;;;;;10413028;28;20041;-75
2023/05/29 16:29:25;;;;;;;26.25;5.95;;;;;;;;;;10418668;28;20081;-78
2023/05/29 16:34:26;;;;;;;12.65;4.95;;;;;;;;;;10392643;28;20653;-76
2023/05/29 16:39:30;;;;;;;13.02;5.97;;;;;;;;;;10387758;28;20520;-75
2023/05/29 16:44:31;;;;;;;16.90;6.82;;;;;;;;;;10407722;23;20056;-73
2023/05/29 16:49:32;;;;;;;15.20;5.60;;;;;;;;;;10431745;28;20040;-71
2023/05/29 16:54:34;;;;;;;10.15;4.57;;;;;;;;;;10447232;28;20029;-72
2023/05/29 16:59:35;;;;;;;9.52;5.32;;;;;;;;;;10461025;28;20075;-70
2023/05/29 17:04:35;;;;;;;10.15;3.78;;;;;;;;;;10449921;28;20377;-71
2023/05/29 17:09:35;;;;;;;21.53;5.10;;;;;;;;;;10449844;28;20471;-72
2023/05/29 17:14:36;;;;;;;18.67;5.57;;;;;;;;;;10447957;28;20386;-71
2023/05/29 17:19:36;;;;;;;8.95;4.95;;;;;;;;;;10448721;28;20029;-71
2023/05/29 17:24:36;;;;;;;7.75;4.30;;;;;;;;;;10448602;28;20033;-73
2023/05/29 17:29:36;;;;;;;12.07;5.63;;;;;;;;;;10447670;28;20222;-70
2023/05/29 17:34:37;;;;;;;10.00;5.47;;;;;;;;;;10435268;28;20025;-71
2023/05/29 17:39:37;;;;;;;9.70;5.43;;;;;;;;;;10432813;28;20025;-72
2023/05/29 17:44:37;;;;;;;11.98;5.10;;;;;;;;;;10449255;28;20037;-70
2023/05/29 17:49:37;;;;;;;10.88;6.03;;;;;;;;;;10451225;28;20355;-71
2023/05/29 17:54:38;;;;;;;15.70;6.97;;;;;;;;;;10448422;28;20039;-72
2023/05/29 17:59:38;;;;;;;16.42;7.25;;;;;;;;;;10449352;28;20468;-72
2023/05/29 18:04:38;;;;;;;13.15;6.15;;;;;;;;;;10450183;28;20052;-71
2023/05/29 18:09:39;;;;;;;10.43;6.50;;;;;;;;;;10450267;28;20035;-76
2023/05/29 18:14:39;;;;;;;20.90;8.20;;;;;;;;;;10448848;28;20111;-72
2023/05/29 18:19:55;;;;;;;14.38;6.15;;;;;;;;;;10451039;28;20071;-71
2023/05/29 18:24:55;;;;;;;11.10;5.70;;;;;;;;;;10447116;28;20040;-71
2023/05/29 18:29:56;;;;;;;11.20;6.40;;;;;;;;;;10448927;28;20063;-73
2023/05/29 18:34:57;;;;;;;13.73;6.03;;;;;;;;;;10448779;28;20061;-74
2023/05/29 18:40:10;;;;;;;13.30;6.35;;;;;;;;;;10448995;28;20036;-72
2023/05/29 18:45:11;;;;;;;14.57;6.18;;;;;;;;;;10438294;28;20151;-73
2023/05/29 18:50:12;;;;;;;15.07;6.13;;;;;;;;;;10456864;28;20036;-74
2023/05/29 18:55:12;;;;;;;9.05;5.72;;;;;;;;;;10455747;28;20096;-73
2023/05/29 19:00:13;;;;;;;14.30;6.23;;;;;;;;;;10456004;28;20029;-71
2023/05/29 19:05:13;;;;;;;8.48;5.75;;;;;;;;;;10462688;28;20039;-71
2023/05/29 19:10:14;;;;;;;12.68;6.43;;;;;;;;;;10456445;28;20033;-74
2023/05/29 19:15:14;;;;;;;6.43;4.55;;;;;;;;;;10453540;28;20092;-69
2023/05/29 19:20:14;;;;;;;7.05;3.90;;;;;;;;;;10451943;28;20072;-71
2023/05/29 19:25:15;;;;;;;11.97;4.43;;;;;;;;;;10451707;28;20250;-74
2023/05/29 19:30:15;;;;;;;8.30;5.03;;;;;;;;;;10454296;28;20275;-72
2023/05/29 19:35:16;;;;;;;10.27;4.07;;;;;;;;;;10436684;28;20475;-72
2023/05/29 19:40:16;;;;;;;9.57;4.47;;;;;;;;;;10455061;28;20321;-72
2023/05/29 19:45:17;;;;;;;7.75;4.50;;;;;;;;;;10454934;28;20035;-72
2023/05/29 19:50:18;;;;;;;9.90;4.90;;;;;;;;;;10455909;28;20116;-73
2023/05/29 19:55:19;;;;;;;12.55;6.65;;;;;;;;;;10452110;28;20039;-73
2023/05/29 20:00:19;;;;;;;11.47;4.67;;;;;;;;;;10453542;28;20389;-73
2023/05/29 20:05:19;;;;;;;9.50;4.70;;;;;;;;;;10453604;28;20329;-73
2023/05/29 20:10:20;;;;;;;10.40;4.72;;;;;;;;;;10454274;28;20036;-73
2023/05/29 20:15:20;;;;;;;9.70;4.57;;;;;;;;;;10434580;28;20033;-73
2023/05/29 20:20:21;;;;;;;20.57;4.53;;;;;;;;;;10453069;28;20335;-72
2023/05/29 20:25:24;;;;;;;8.15;4.47;;;;;;;;;;10453085;28;20407;-72
2023/05/29 20:30:24;;;;;;;8.88;4.80;;;;;;;;;;10453289;28;20029;-72
2023/05/29 20:35:25;;;;;;;6.97;3.35;;;;;;;;;;10422784;22;20057;-76
2023/05/29 20:40:26;;;;;;;11.43;4.88;;;;;;;;;;10379784;28;20064;-77
2023/05/29 20:45:27;;;;;;;8.07;4.20;;;;;;;;;;10379842;28;20447;-78
2023/05/29 20:50:28;;;;;;;13.60;5.07;;;;;;;;;;10381955;28;20037;-78
2023/05/29 20:55:59;;;;;;;8.65;4.55;;;;;;;;;;10376434;28;20487;-80
2023/05/29 21:01:12;;;;;;;14.13;4.80;;;;;;;;;;10378433;28;20045;-82
2023/05/29 21:06:15;;;;;;;6.88;4.75;;;;;;;;;;10356321;28;20046;-77
2023/05/29 21:11:16;;;;;;;8.45;5.13;;;;;;;;;;10414217;23;20053;-73
2023/05/29 21:16:16;;;;;;;7.85;4.60;;;;;;;;;;10409484;28;20361;-73
2023/05/29 21:21:18;;;;;;;11.57;4.25;;;;;;;;;;10394900;28;20034;-73
2023/05/29 21:26:19;;;;;;;11.98;6.10;;;;;;;;;;10399412;28;20029;-74
2023/05/29 21:31:26;;;;;;;9.50;5.03;;;;;;;;;;10398555;28;20022;-72
2023/05/29 21:36:26;;;;;;;12.25;5.30;;;;;;;;;;10416218;28;20315;-72
2023/05/29 21:41:26;;;;;;;9.02;5.65;;;;;;;;;;10409403;28;20052;-72
2023/05/29 21:46:26;;;;;;;9.38;5.10;;;;;;;;;;10394695;28;20072;-72
2023/05/29 21:51:27;;;;;;;15.48;5.72;;;;;;;;;;10413498;28;20037;-72
2023/05/29 21:56:29;;;;;;;14.23;5.43;;;;;;;;;;10416563;28;20079;-73
2023/05/29 22:01:29;;;;;;;14.10;6.55;;;;;;;;;;10414720;28;20032;-72
2023/05/29 22:06:30;;;;;;;13.02;5.82;;;;;;;;;;10415370;28;20379;-72
2023/05/29 22:11:33;;;;;;;11.48;6.88;;;;;;;;;;10415945;28;20372;-72
2023/05/29 22:16:34;;;;;;;7.45;4.10;;;;;;;;;;10415659;28;20029;-73
2023/05/29 22:21:35;;;;;;;8.77;4.57;;;;;;;;;;10414705;28;20052;-73
2023/05/29 22:26:36;;;;;;;10.75;4.13;;;;;;;;;;10414943;28;20335;-73
2023/05/29 22:31:36;;;;;;;9.83;5.60;;;;;;;;;;10415773;28;20271;-72
2023/05/29 22:36:36;;;;;;;9.10;5.53;;;;;;;;;;10414632;28;20379;-73
2023/05/29 22:41:37;;;;;;;10.48;5.05;;;;;;;;;;10415063;28;20331;-75
2023/05/29 22:46:37;;;;;;;10.43;5.65;;;;;;;;;;10414500;28;20041;-74
2023/05/29 22:51:38;;;;;;;8.35;5.20;;;;;;;;;;10414538;28;20025;-74
2023/05/29 22:56:38;;;;;;;9.73;5.60;;;;;;;;;;10414138;28;20029;-73
2023/05/29 23:01:39;;;;;;;8.93;4.85;;;;;;;;;;10414482;28;20026;-73
2023/05/29 23:06:41;;;;;;;12.07;5.15;;;;;;;;;;10414544;28;20032;-73
2023/05/29 23:11:41;;;;;;;11.20;5.68;;;;;;;;;;10415571;28;20044;-73
2023/05/29 23:16:42;;;;;;;9.00;5.40;;;;;;;;;;10414545;28;20033;-72
2023/05/29 23:21:42;;;;;;;7.38;4.72;;;;;;;;;;10414456;28;20093;-73
2023/05/29 23:26:42;;;;;;;9.30;5.20;;;;;;;;;;10414847;28;20048;-73
2023/05/29 23:31:42;;;;;;;7.25;5.15;;;;;;;;;;10421301;28;20101;-73
2023/05/29 23:36:46;;;;;;;10.15;5.28;;;;;;;;;;10420110;28;20053;-73
2023/05/29 23:41:47;;;;;;;10.18;6.30;;;;;;;;;;10420782;28;20342;-75
2023/05/29 23:46:47;;;;;;;6.97;4.55;;;;;;;;;;10420932;28;20230;-74
2023/05/29 23:51:48;;;;;;;6.83;4.07;;;;;;;;;;10420946;28;20249;-73
2023/05/29 23:56:49;;;;;;;10.98;5.07;;;;;;;;;;10420412;28;20017;-73
